Time;durP1;ratioP1;P1;durP2;ratioP2;P2;SDS_P1;SDS_P2;PMS_P1;PMS_P2;Temp;Humidity;BMP_temperature;BMP_pressure;BME280_temperature;BME280_humidity;BME280_pressure;Samples;Min_cycle;Max_cycle;Signal;HPM_P1;HPM_P2
2024/02/20 00:01:57;;;;;;;19.83;2.17;;;5.20;99.90;;;;;;5064258;28;20522;-82
2024/02/20 00:04:23;;;;;;;26.17;1.30;;;;;;;;;;5062470;28;20017;-82
2024/02/20 00:06:49;;;;;;;17.75;1.33;;;5.20;99.90;;;;;;5063033;28;20028;-82
2024/02/20 00:09:14;;;;;;;15.73;1.83;;;5.20;99.90;;;;;;5064039;28;20100;-82
2024/02/20 00:11:40;;;;;;;18.40;2.10;;;5.20;99.90;;;;;;5063611;28;20021;-82
2024/02/20 00:14:05;;;;;;;11.57;1.23;;;5.20;99.90;;;;;;5062283;28;20017;-82
2024/02/20 00:16:31;;;;;;;13.93;1.38;;;5.20;99.90;;;;;;5060820;28;20146;-82
2024/02/20 00:18:57;;;;;;;19.38;1.48;;;5.20;99.90;;;;;;5060924;28;20017;-82
2024/02/20 00:21:24;;;;;;;15.48;0.93;;;5.20;99.90;;;;;;5061134;28;20507;-82
2024/02/20 00:23:51;;;;;;;30.42;2.25;;;5.20;99.90;;;;;;5060375;28;20033;-82
2024/02/20 00:26:17;;;;;;;17.05;1.05;;;5.20;99.90;;;;;;5060919;28;20032;-82
2024/02/20 00:28:42;;;;;;;15.30;1.25;;;5.20;99.90;;;;;;5060141;28;20029;-82
2024/02/20 00:31:08;;;;;;;17.80;2.72;;;5.20;99.90;;;;;;5060958;28;20017;-82
2024/02/20 00:33:34;;;;;;;15.20;1.30;;;6.80;99.90;;;;;;5060056;28;20017;-82
2024/02/20 00:36:01;;;;;;;15.65;0.65;;;5.20;99.90;;;;;;5061328;28;20025;-82
2024/02/20 00:38:27;;;;;;;12.90;1.60;;;;;;;;;;5061240;28;20031;-82
2024/02/20 00:40:52;;;;;;;13.32;1.83;;;5.20;99.90;;;;;;5060647;28;20539;-81
2024/02/20 00:43:18;;;;;;;23.10;1.63;;;5.10;99.90;;;;;;5061217;28;20013;-82
2024/02/20 00:45:47;;;;;;;24.35;1.83;;;6.00;99.90;;;;;;5061586;28;20075;-81
2024/02/20 00:48:13;;;;;;;9.68;0.52;;;5.20;99.90;;;;;;5059980;28;20021;-81
2024/02/20 00:50:38;;;;;;;9.07;0.43;;;5.10;99.90;;;;;;5060592;28;20037;-81
2024/02/20 00:53:05;;;;;;;17.85;1.13;;;;;;;;;;5059934;28;20020;-81
2024/02/20 00:55:31;;;;;;;16.95;0.65;;;;;;;;;;5060320;28;20052;-82
2024/02/20 00:57:59;;;;;;;14.63;0.93;;;5.30;99.90;;;;;;5060411;28;20037;-81
2024/02/20 01:00:25;;;;;;;16.50;1.08;;;5.20;99.90;;;;;;5060250;28;20029;-81
2024/02/20 01:02:51;;;;;;;16.33;2.17;;;5.30;99.90;;;;;;5059625;28;20009;-81
2024/02/20 01:05:17;;;;;;;17.42;1.40;;;5.30;99.90;;;;;;5061796;28;20063;-81
2024/02/20 01:07:42;;;;;;;15.52;1.35;;;5.30;99.90;;;;;;5061128;28;20070;-82
2024/02/20 01:10:08;;;;;;;18.33;1.73;;;5.40;99.90;;;;;;5061281;28;20024;-81
2024/02/20 01:12:38;;;;;;;19.40;1.27;;;5.50;99.90;;;;;;5061983;28;20035;-82
2024/02/20 01:15:05;;;;;;;17.80;1.42;;;5.50;99.90;;;;;;5060626;28;20032;-81
2024/02/20 01:17:31;;;;;;;16.85;1.52;;;5.50;99.90;;;;;;5060530;28;20024;-80
2024/02/20 01:19:58;;;;;;;21.17;1.70;;;;;;;;;;5061121;28;20017;-81
2024/02/20 01:22:24;;;;;;;18.77;1.38;;;5.60;99.90;;;;;;5060920;28;20028;-81
2024/02/20 01:24:50;;;;;;;16.98;1.65;;;5.60;99.90;;;;;;5061583;28;20029;-81
2024/02/20 01:27:15;;;;;;;20.63;1.73;;;5.60;99.90;;;;;;5060757;28;20033;-81
2024/02/20 01:29:45;;;;;;;21.45;1.95;;;6.10;99.90;;;;;;5062068;28;20031;-82
2024/02/20 01:32:12;;;;;;;16.83;1.27;;;;;;;;;;5060261;28;20087;-81
2024/02/20 01:34:38;;;;;;;24.70;0.60;;;;;;;;;;5061039;28;20029;-80
2024/02/20 01:37:05;;;;;;;25.10;1.55;;;5.80;99.90;;;;;;5060755;28;20025;-81
2024/02/20 01:39:31;;;;;;;25.08;1.58;;;5.80;99.90;;;;;;5059513;28;20033;-81
2024/02/20 01:41:57;;;;;;;21.88;1.52;;;5.80;99.90;;;;;;5059709;28;20017;-81
2024/02/20 01:44:33;;;;;;;10.50;0.85;;;5.80;99.90;;;;;;5059624;28;20541;-81
2024/02/20 01:47:01;;;;;;;18.30;1.67;;;5.80;99.90;;;;;;5060737;28;20025;-81
2024/02/20 01:49:28;;;;;;;15.80;1.42;;;5.90;99.90;;;;;;5059125;28;20033;-81
2024/02/20 01:51:55;;;;;;;19.60;1.10;;;5.80;99.90;;;;;;5059571;28;20442;-81
2024/02/20 01:54:21;;;;;;;24.67;3.35;;;6.90;99.90;;;;;;5061623;28;20051;-81
2024/02/20 01:56:48;;;;;;;13.93;1.08;;;5.90;99.90;;;;;;5060814;28;20047;-81
2024/02/20 01:59:13;;;;;;;20.85;2.30;;;5.90;99.90;;;;;;5060428;28;20047;-81
2024/02/20 02:01:39;;;;;;;20.92;1.17;;;5.90;99.90;;;;;;5060824;28;20029;-81
2024/02/20 02:04:05;;;;;;;17.67;1.33;;;5.90;99.90;;;;;;5061257;28;20017;-82
2024/02/20 02:06:31;;;;;;;21.90;2.65;;;5.90;99.90;;;;;;5059990;28;20102;-81
2024/02/20 02:08:57;;;;;;;14.55;1.35;;;6.90;99.90;;;;;;5060923;28;20032;-81
2024/02/20 02:11:23;;;;;;;16.88;1.33;;;;;;;;;;5061614;28;20496;-82
2024/02/20 02:13:49;;;;;;;19.67;0.63;;;5.90;99.90;;;;;;5059597;28;20365;-81
2024/02/20 02:16:15;;;;;;;16.75;1.38;;;5.90;99.90;;;;;;5060168;28;20066;-81
2024/02/20 02:18:40;;;;;;;10.77;0.90;;;5.90;99.90;;;;;;5061303;28;20076;-82
2024/02/20 02:21:06;;;;;;;15.30;2.33;;;7.30;99.90;;;;;;5060184;28;20032;-82
2024/02/20 02:23:32;;;;;;;17.40;0.98;;;5.90;99.90;;;;;;5060412;28;20021;-82
2024/02/20 02:25:57;;;;;;;24.80;3.45;;;5.90;99.90;;;;;;5060522;28;20020;-82
2024/02/20 02:28:23;;;;;;;18.40;1.52;;;5.90;99.90;;;;;;5060242;28;20105;-83
2024/02/20 02:30:49;;;;;;;19.92;1.77;;;5.90;99.90;;;;;;5061635;28;20050;-82
2024/02/20 02:33:15;;;;;;;14.98;0.88;;;5.90;99.90;;;;;;5059644;28;20017;-82
2024/02/20 02:35:41;;;;;;;9.25;0.80;;;5.90;99.90;;;;;;5060071;28;20028;-82
2024/02/20 02:38:06;;;;;;;31.42;1.90;;;5.90;99.90;;;;;;5061380;28;20025;-81
2024/02/20 02:40:32;;;;;;;12.82;1.85;;;6.00;99.90;;;;;;5059741;28;20558;-83
2024/02/20 02:42:57;;;;;;;24.10;2.63;;;6.00;99.90;;;;;;5059474;28;20021;-82
2024/02/20 02:45:23;;;;;;;12.63;0.68;;;;;;;;;;5059201;28;20017;-82
2024/02/20 02:47:51;;;;;;;12.48;1.08;;;6.00;99.90;;;;;;5059277;28;20029;-81
2024/02/20 02:50:17;;;;;;;14.00;0.98;;;6.10;99.90;;;;;;5059007;28;20388;-82
2024/02/20 02:52:43;;;;;;;13.63;1.40;;;6.10;99.90;;;;;;5059142;28;20031;-81
2024/02/20 02:55:09;;;;;;;19.25;1.08;;;6.10;99.90;;;;;;5060064;28;20025;-81
2024/02/20 02:57:34;;;;;;;13.85;1.35;;;6.10;99.90;;;;;;5058999;28;20025;-81
2024/02/20 03:00:00;;;;;;;13.43;1.55;;;;;;;;;;5059185;28;20032;-81
2024/02/20 03:02:26;;;;;;;16.67;1.33;;;6.10;99.90;;;;;;5059103;28;20108;-81
2024/02/20 03:04:51;;;;;;;16.67;1.92;;;6.50;99.90;;;;;;5058344;28;20052;-81
2024/02/20 03:07:17;;;;;;;20.42;1.33;;;6.30;99.90;;;;;;5058277;28;20032;-83
2024/02/20 03:09:43;;;;;;;29.95;1.67;;;6.30;99.90;;;;;;5058870;28;20063;-81
2024/02/20 03:12:08;;;;;;;16.38;1.90;;;6.30;99.90;;;;;;5060917;28;20021;-81
2024/02/20 03:14:34;;;;;;;20.67;1.23;;;6.40;99.90;;;;;;5061115;28;20451;-81
2024/02/20 03:16:59;;;;;;;24.27;1.60;;;6.40;99.90;;;;;;5059927;28;20021;-81
2024/02/20 03:19:25;;;;;;;12.65;1.02;;;6.40;99.90;;;;;;5060139;28;20136;-81
2024/02/20 03:21:52;;;;;;;14.75;1.13;;;;;;;;;;5060209;28;20039;-81
2024/02/20 03:24:17;;;;;;;19.65;1.70;;;6.40;99.90;;;;;;5061521;28;20029;-81
2024/02/20 03:26:43;;;;;;;18.85;1.65;;;6.40;99.90;;;;;;5066694;28;20028;-82
2024/02/20 03:29:09;;;;;;;15.95;1.08;;;6.40;99.90;;;;;;5065984;28;20017;-81
2024/02/20 03:31:34;;;;;;;15.02;1.90;;;6.50;99.90;;;;;;5065591;28;20395;-80
2024/02/20 03:34:01;;;;;;;37.92;1.73;;;6.40;99.90;;;;;;5065493;28;20481;-82
2024/02/20 03:36:26;;;;;;;17.67;1.17;;;6.40;99.90;;;;;;5064451;28;20044;-82
2024/02/20 03:38:52;;;;;;;18.10;1.38;;;6.40;99.90;;;;;;5066432;28;20025;-81
2024/02/20 03:41:18;;;;;;;16.42;2.17;;;6.50;99.90;;;;;;5067620;28;20028;-80
2024/02/20 03:43:43;;;;;;;23.52;2.58;;;8.10;99.90;;;;;;5066240;28;20048;-81
2024/02/20 03:46:11;;;;;;;21.40;1.27;;;;;;;;;;5065873;28;20028;-81
2024/02/20 03:48:37;;;;;;;13.07;1.27;;;6.40;99.90;;;;;;5066676;28;20017;-81
2024/02/20 03:51:03;;;;;;;15.80;1.75;;;6.40;99.90;;;;;;5067908;28;20039;-81
2024/02/20 03:53:29;;;;;;;15.55;1.55;;;;;;;;;;5065258;28;20059;-81
2024/02/20 03:55:55;;;;;;;17.02;2.10;;;6.50;99.90;;;;;;5066753;28;20032;-81
2024/02/20 03:58:20;;;;;;;14.20;1.00;;;6.50;99.90;;;;;;5065247;28;20045;-81
2024/02/20 04:00:46;;;;;;;27.90;1.42;;;6.40;99.90;;;;;;5067233;28;20025;-81
2024/02/20 04:03:12;;;;;;;17.60;1.30;;;;;;;;;;5065256;28;20445;-81
2024/02/20 04:05:38;;;;;;;28.30;1.65;;;6.40;99.90;;;;;;5063683;28;20036;-81
2024/02/20 04:08:04;;;;;;;22.48;0.93;;;6.40;99.90;;;;;;5065407;28;20021;-81
2024/02/20 04:10:30;;;;;;;11.65;0.47;;;6.40;99.90;;;;;;5064423;28;20472;-81
2024/02/20 04:12:56;;;;;;;19.85;2.55;;;6.40;99.90;;;;;;5063850;28;20032;-81
2024/02/20 04:15:22;;;;;;;16.52;1.40;;;6.40;99.90;;;;;;5063979;28;20017;-81
2024/02/20 04:17:47;;;;;;;12.88;0.70;;;6.40;99.90;;;;;;5064577;28;20051;-81
2024/02/20 04:20:13;;;;;;;13.20;0.90;;;;;;;;;;5065754;28;20033;-81
2024/02/20 04:22:39;;;;;;;15.30;0.73;;;6.30;99.90;;;;;;5063984;28;20021;-81
2024/02/20 04:25:06;;;;;;;17.27;1.48;;;6.30;99.90;;;;;;5063758;28;20059;-81
2024/02/20 04:27:32;;;;;;;10.30;0.70;;;6.30;99.90;;;;;;5064093;28;20480;-81
2024/02/20 04:29:58;;;;;;;21.55;0.63;;;6.30;99.90;;;;;;5063975;28;20079;-80
2024/02/20 04:32:23;;;;;;;17.00;1.65;;;6.30;99.90;;;;;;5064269;28;20021;-81
2024/02/20 04:34:49;;;;;;;26.77;2.53;;;6.30;99.90;;;;;;5064792;28;20009;-80
2024/02/20 04:37:15;;;;;;;17.30;1.13;;;6.30;99.90;;;;;;5060215;28;20017;-80
2024/02/20 04:39:43;;;;;;;16.70;2.00;;;;;;;;;;5060228;28;20021;-81
2024/02/20 04:42:09;;;;;;;17.00;1.05;;;6.30;99.90;;;;;;5061079;28;20040;-81
2024/02/20 04:44:37;;;;;;;13.63;1.42;;;6.30;99.90;;;;;;5061012;28;20056;-81
2024/02/20 04:47:06;;;;;;;16.27;1.17;;;6.30;99.90;;;;;;5063055;28;20187;-81
2024/02/20 04:49:32;;;;;;;16.58;0.93;;;6.30;99.90;;;;;;5060863;28;20123;-80
2024/02/20 04:51:58;;;;;;;13.75;2.05;;;6.30;99.90;;;;;;5060685;28;20029;-81
2024/02/20 04:54:23;;;;;;;20.40;1.13;;;6.30;99.90;;;;;;5060721;28;20078;-81
2024/02/20 04:56:49;;;;;;;19.08;1.65;;;6.40;99.90;;;;;;5060427;28;20029;-81
2024/02/20 04:59:15;;;;;;;21.02;2.22;;;6.30;99.90;;;;;;5061105;28;20025;-81
2024/02/20 05:01:40;;;;;;;15.05;1.30;;;6.40;99.90;;;;;;5062812;28;20047;-81
2024/02/20 05:04:06;;;;;;;16.10;1.10;;;6.30;99.90;;;;;;5061758;28;20077;-81
2024/02/20 05:06:31;;;;;;;11.93;1.20;;;6.30;99.90;;;;;;5060503;28;20457;-81
2024/02/20 05:08:57;;;;;;;16.98;1.08;;;6.40;99.90;;;;;;5062026;28;20024;-81
2024/02/20 05:11:23;;;;;;;20.80;1.10;;;6.40;99.90;;;;;;5062083;28;20025;-81
2024/02/20 05:13:48;;;;;;;17.02;1.10;;;6.40;99.90;;;;;;5060010;28;20021;-81
2024/02/20 05:16:14;;;;;;;16.15;1.48;;;6.40;99.90;;;;;;5061999;28;20365;-79
2024/02/20 05:18:39;;;;;;;14.40;1.02;;;6.40;99.90;;;;;;5059001;28;20089;-78
2024/02/20 05:21:06;;;;;;;10.10;0.80;;;6.50;99.90;;;;;;5060184;28;20013;-78
2024/02/20 05:23:32;;;;;;;11.32;0.85;;;6.40;99.90;;;;;;5060174;28;20023;-78
2024/02/20 05:25:57;;;;;;;13.50;1.23;;;6.50;99.90;;;;;;5059087;28;20048;-78
2024/02/20 05:28:23;;;;;;;14.00;0.82;;;6.50;99.90;;;;;;5060570;28;20079;-78
2024/02/20 05:30:49;;;;;;;18.35;1.90;;;8.60;99.90;;;;;;5059790;28;20427;-78
2024/02/20 05:33:15;;;;;;;24.20;1.75;;;6.50;99.90;;;;;;5059994;28;20017;-78
2024/02/20 05:35:42;;;;;;;13.38;1.80;;;6.50;99.90;;;;;;5059077;28;20079;-78
2024/02/20 05:38:08;;;;;;;11.10;1.45;;;6.60;99.90;;;;;;5059342;28;20063;-79
2024/02/20 05:40:34;;;;;;;12.68;1.17;;;6.60;99.90;;;;;;5060027;28;20025;-78
2024/02/20 05:42:59;;;;;;;18.05;1.27;;;6.60;99.90;;;;;;5059690;28;20097;-78
2024/02/20 05:45:25;;;;;;;15.82;1.38;;;6.60;99.90;;;;;;5060640;28;20120;-78
2024/02/20 05:47:51;;;;;;;16.10;1.27;;;;;;;;;;5061487;28;20028;-78
2024/02/20 05:50:17;;;;;;;12.95;0.93;;;6.60;99.90;;;;;;5061130;28;20031;-78
2024/02/20 05:52:43;;;;;;;25.83;2.13;;;;;;;;;;5060623;28;20065;-79
2024/02/20 05:55:09;;;;;;;16.95;2.03;;;6.60;99.90;;;;;;5061505;28;20404;-78
2024/02/20 05:57:34;;;;;;;23.90;1.45;;;6.60;99.90;;;;;;5060117;28;20021;-79
2024/02/20 06:00:01;;;;;;;15.77;1.13;;;6.60;99.90;;;;;;5060381;28;20079;-78
2024/02/20 06:02:26;;;;;;;21.48;1.48;;;8.00;99.90;;;;;;5059663;28;20051;-78
2024/02/20 06:04:52;;;;;;;18.85;2.08;;;6.50;99.90;;;;;;5060941;28;20135;-79
2024/02/20 06:07:20;;;;;;;13.25;0.98;;;6.50;99.90;;;;;;5060093;28;20032;-78
2024/02/20 06:09:45;;;;;;;16.05;0.80;;;6.40;99.90;;;;;;5060201;28;20017;-78
2024/02/20 06:12:11;;;;;;;18.92;1.08;;;6.40;99.90;;;;;;5059790;28;20479;-78
2024/02/20 06:14:37;;;;;;;11.82;1.20;;;6.40;99.90;;;;;;5066399;28;20033;-78
2024/02/20 06:17:03;;;;;;;11.48;1.10;;;6.40;99.90;;;;;;5059038;28;20092;-79
2024/02/20 06:19:28;;;;;;;15.00;1.70;;;6.40;99.90;;;;;;5059373;28;21943;-79
2024/02/20 06:21:54;;;;;;;20.88;2.00;;;6.40;99.90;;;;;;5060115;28;20021;-78
2024/02/20 06:24:19;;;;;;;14.40;1.65;;;6.30;99.90;;;;;;5059661;28;20378;-78
2024/02/20 06:26:45;;;;;;;15.55;1.60;;;6.30;99.90;;;;;;5059911;28;20073;-80
2024/02/20 06:29:11;;;;;;;17.00;1.50;;;6.90;99.90;;;;;;5059439;28;20107;-78
2024/02/20 06:31:38;;;;;;;14.13;1.25;;;;;;;;;;5066802;28;20021;-79
2024/02/20 06:34:06;;;;;;;12.95;0.55;;;;;;;;;;5070278;28;20036;-79
2024/02/20 06:36:32;;;;;;;13.73;1.00;;;6.30;99.90;;;;;;5071565;28;20024;-79
2024/02/20 06:38:58;;;;;;;16.20;1.65;;;6.20;99.90;;;;;;5069789;28;20263;-79
2024/02/20 06:41:24;;;;;;;19.40;2.30;;;6.20;99.90;;;;;;5070971;28;20048;-79
2024/02/20 06:43:49;;;;;;;12.95;2.38;;;6.20;99.90;;;;;;5069720;28;20013;-78
2024/02/20 06:46:15;;;;;;;26.27;1.75;;;6.20;99.90;;;;;;5070287;28;20120;-80
2024/02/20 06:48:43;;;;;;;15.90;2.10;;;6.30;99.90;;;;;;5070230;28;20025;-79
2024/02/20 06:51:09;;;;;;;13.18;1.73;;;;;;;;;;5071671;28;20542;-79
2024/02/20 06:53:35;;;;;;;22.20;2.33;;;6.10;99.90;;;;;;5069800;28;20025;-79
2024/02/20 06:56:01;;;;;;;15.88;1.90;;;6.10;99.90;;;;;;5072155;28;20044;-79
2024/02/20 06:58:27;;;;;;;13.35;0.80;;;6.00;99.90;;;;;;5071498;28;20029;-79
2024/02/20 07:00:53;;;;;;;10.18;0.95;;;6.00;99.90;;;;;;5069037;28;20557;-78
2024/02/20 07:03:18;;;;;;;15.85;2.17;;;6.10;99.90;;;;;;5059496;28;20013;-78
2024/02/20 07:05:44;;;;;;;27.42;3.05;;;6.10;99.90;;;;;;5058203;28;20108;-78
2024/02/20 07:08:11;;;;;;;21.45;2.30;;;6.10;99.90;;;;;;5059928;28;20021;-78
2024/02/20 07:10:36;;;;;;;20.25;2.08;;;6.00;99.90;;;;;;5057723;28;20539;-78
2024/02/20 07:13:02;;;;;;;23.65;2.13;;;6.10;99.90;;;;;;5056989;28;20086;-78
2024/02/20 07:15:28;;;;;;;21.35;2.50;;;6.10;99.90;;;;;;5058179;28;20064;-79
2024/02/20 07:17:54;;;;;;;20.50;1.58;;;6.20;99.90;;;;;;5059009;28;20029;-78
2024/02/20 07:20:19;;;;;;;16.08;2.35;;;6.20;99.90;;;;;;5058791;28;20067;-78
2024/02/20 07:22:45;;;;;;;13.95;0.77;;;;;;;;;;5058301;28;20025;-79
2024/02/20 07:25:11;;;;;;;22.98;2.28;;;6.30;99.90;;;;;;5058099;28;20025;-78
2024/02/20 07:27:38;;;;;;;14.95;1.63;;;6.40;99.90;;;;;;5057885;28;20049;-78
2024/02/20 07:30:04;;;;;;;22.85;2.17;;;7.50;99.90;;;;;;5058455;28;20071;-78
2024/02/20 07:32:30;;;;;;;16.40;2.28;;;6.40;99.90;;;;;;5057985;28;20111;-78
2024/02/20 07:34:56;;;;;;;17.17;1.48;;;6.40;99.90;;;;;;5058169;28;20072;-78
2024/02/20 07:37:21;;;;;;;23.27;2.38;;;6.40;99.90;;;;;;5058495;28;20033;-79
2024/02/20 07:39:47;;;;;;;17.30;1.85;;;6.40;99.90;;;;;;5056385;28;20107;-79
2024/02/20 07:42:13;;;;;;;17.30;2.05;;;6.50;99.90;;;;;;5057742;28;20036;-78
2024/02/20 07:44:38;;;;;;;17.10;1.80;;;8.10;99.90;;;;;;5057726;28;20066;-78
2024/02/20 07:47:04;;;;;;;18.63;2.42;;;6.50;99.90;;;;;;5058279;28;20113;-79
2024/02/20 07:49:30;;;;;;;19.05;2.97;;;6.50;99.90;;;;;;5056527;28;20428;-78
2024/02/20 07:51:56;;;;;;;16.50;2.00;;;6.60;99.90;;;;;;5058049;28;20040;-78
2024/02/20 07:54:22;;;;;;;21.02;1.90;;;6.60;99.90;;;;;;5057609;28;20020;-78
2024/02/20 07:56:47;;;;;;;10.02;1.67;;;6.70;99.90;;;;;;5057436;28;20063;-79
2024/02/20 07:59:14;;;;;;;19.40;1.80;;;6.70;99.90;;;;;;5056963;28;20024;-78
2024/02/20 08:01:47;;;;;;;22.80;2.00;;;6.70;99.90;;;;;;5058641;28;20026;-78
2024/02/20 08:04:13;;;;;;;20.70;3.03;;;6.80;99.90;;;;;;5058407;28;20021;-78
2024/02/20 08:06:39;;;;;;;14.95;2.75;;;6.90;99.90;;;;;;5058647;28;20028;-79
2024/02/20 08:09:06;;;;;;;18.02;3.05;;;6.90;99.90;;;;;;5057047;28;20017;-78
2024/02/20 08:11:34;;;;;;;23.00;1.52;;;7.00;99.90;;;;;;5059898;28;20048;-78
2024/02/20 08:13:59;;;;;;;32.00;4.40;;;7.70;99.90;;;;;;5062502;28;20017;-78
2024/02/20 08:16:25;;;;;;;22.40;2.20;;;7.10;99.90;;;;;;5062047;28;20140;-79
2024/02/20 08:18:51;;;;;;;25.15;3.25;;;7.20;99.90;;;;;;5061681;28;20120;-78
2024/02/20 08:21:16;;;;;;;27.50;3.70;;;7.30;99.90;;;;;;5063513;28;20036;-78
2024/02/20 08:23:45;;;;;;;29.73;3.25;;;7.30;99.90;;;;;;5063015;28;20099;-79
2024/02/20 08:26:11;;;;;;;18.25;1.52;;;;;;;;;;5062079;28;20094;-79
2024/02/20 08:28:38;;;;;;;20.50;1.58;;;;;;;;;;5060733;28;20052;-79
2024/02/20 08:31:03;;;;;;;27.08;2.78;;;7.60;99.90;;;;;;5062189;28;20036;-78
2024/02/20 08:33:29;;;;;;;21.20;1.45;;;7.70;99.90;;;;;;5062156;28;20017;-79
2024/02/20 08:35:54;;;;;;;20.55;2.92;;;7.70;99.90;;;;;;5062022;28;20054;-78
2024/02/20 08:38:20;;;;;;;12.07;1.73;;;7.80;99.90;;;;;;5061752;28;20472;-79
2024/02/20 08:40:46;;;;;;;17.67;2.33;;;;;;;;;;5062043;28;20049;-79
2024/02/20 08:43:12;;;;;;;24.10;1.65;;;7.80;99.90;;;;;;5061339;28;20025;-78
2024/02/20 08:45:38;;;;;;;19.70;2.60;;;7.80;99.90;;;;;;5062440;28;20436;-78
2024/02/20 08:48:04;;;;;;;18.02;1.50;;;7.90;99.90;;;;;;5059876;28;20044;-78
2024/02/20 08:50:30;;;;;;;19.75;2.33;;;7.90;99.90;;;;;;5059509;28;20480;-78
2024/02/20 08:52:56;;;;;;;20.25;2.72;;;7.90;99.90;;;;;;5060599;28;20028;-78
2024/02/20 08:55:21;;;;;;;21.85;3.13;;;7.90;99.90;;;;;;5061292;28;20017;-78
2024/02/20 08:57:47;;;;;;;25.92;1.65;;;8.00;99.90;;;;;;5062496;28;20036;-79
2024/02/20 09:00:13;;;;;;;17.73;1.80;;;9.40;99.90;;;;;;5059664;28;20033;-78
2024/02/20 09:02:40;;;;;;;22.42;2.90;;;7.90;99.90;;;;;;5060950;28;20108;-78
2024/02/20 09:05:06;;;;;;;19.08;1.10;;;7.90;99.90;;;;;;5060416;28;20021;-78
2024/02/20 09:07:32;;;;;;;22.67;2.88;;;7.90;99.90;;;;;;5059867;28;20079;-78
2024/02/20 09:09:57;;;;;;;15.02;1.75;;;8.00;99.90;;;;;;5060206;28;20021;-78
2024/02/20 09:12:23;;;;;;;17.00;2.67;;;8.00;99.90;;;;;;5059941;28;20039;-78
2024/02/20 09:14:49;;;;;;;17.50;1.95;;;8.10;99.90;;;;;;5060714;28;20422;-79
2024/02/20 09:17:15;;;;;;;13.38;1.63;;;8.10;99.90;;;;;;5058623;28;20120;-79
2024/02/20 09:19:41;;;;;;;11.07;1.38;;;8.20;99.90;;;;;;5058361;28;20101;-78
2024/02/20 09:22:10;;;;;;;26.13;3.25;;;8.20;99.90;;;;;;5058800;28;20041;-78
2024/02/20 09:24:36;;;;;;;19.13;1.42;;;8.30;99.90;;;;;;5059082;28;20058;-79
2024/02/20 09:27:05;;;;;;;16.92;2.00;;;8.40;99.90;;;;;;5061660;28;20546;-79
2024/02/20 09:29:33;;;;;;;23.70;2.53;;;8.40;99.90;;;;;;5060221;28;20025;-78
2024/02/20 09:31:59;;;;;;;16.73;2.35;;;8.50;99.90;;;;;;5060964;28;20017;-78
2024/02/20 09:34:26;;;;;;;18.13;2.20;;;8.60;99.90;;;;;;5059861;28;20522;-79
2024/02/20 09:36:52;;;;;;;16.63;2.13;;;8.60;99.90;;;;;;5063064;28;20036;-79
2024/02/20 09:39:22;;;;;;;17.08;2.15;;;;;;;;;;5062009;28;20052;-78
2024/02/20 09:41:51;;;;;;;20.50;1.80;;;8.70;99.90;;;;;;5062386;28;20025;-78
2024/02/20 09:44:17;;;;;;;;;;;10.90;99.90;;;;;;5064397;28;20025;-79
2024/02/20 09:46:57;;;;;;;14.85;1.42;;;8.90;99.90;;;;;;5062829;28;19912;-79
2024/02/20 09:49:23;;;;;;;16.20;2.10;;;8.90;99.90;;;;;;5061246;28;20044;-78
2024/02/20 09:51:49;;;;;;;14.90;2.55;;;9.00;99.90;;;;;;5061860;28;20025;-80
2024/02/20 09:54:16;;;;;;;17.83;2.70;;;9.10;99.90;;;;;;5063774;28;20036;-78
2024/02/20 09:56:43;;;;;;;24.30;1.85;;;9.10;99.90;;;;;;5060815;28;20021;-79
2024/02/20 09:59:10;;;;;;;21.20;1.98;;;9.10;99.90;;;;;;5061246;28;20028;-78
2024/02/20 10:01:37;;;;;;;16.75;1.40;;;9.10;99.90;;;;;;5060464;28;20032;-78
2024/02/20 10:04:08;;;;;;;16.67;1.50;;;9.30;99.90;;;;;;5063691;28;20531;-79
2024/02/20 10:06:34;;;;;;;14.00;1.70;;;9.20;99.90;;;;;;5063292;28;20064;-79
2024/02/20 10:09:00;;;;;;;29.80;1.90;;;9.30;99.90;;;;;;5065006;28;20096;-78
2024/02/20 10:11:26;;;;;;;26.77;3.60;;;9.30;99.90;;;;;;5063782;28;20025;-79
2024/02/20 10:13:53;;;;;;;15.75;2.20;;;9.40;99.90;;;;;;5064890;28;20021;-79
2024/02/20 10:16:19;;;;;;;14.40;1.27;;;9.40;99.90;;;;;;5065594;28;20078;-79
2024/02/20 10:18:57;;;;;;;15.43;1.70;;;9.40;99.90;;;;;;5065006;28;20049;-79
2024/02/20 10:21:23;;;;;;;19.67;2.33;;;9.40;99.90;;;;;;5065137;28;20033;-78
2024/02/20 10:24:08;;;;;;;15.15;1.48;;;9.50;99.90;;;;;;5064990;28;20119;-79
2024/02/20 10:26:35;;;;;;;17.48;1.63;;;9.50;99.90;;;;;;5065397;28;20027;-79
2024/02/20 10:29:05;;;;;;;15.50;1.70;;;9.50;99.90;;;;;;5064069;28;20039;-79
2024/02/20 10:31:32;;;;;;;13.20;2.10;;;9.60;99.90;;;;;;5064110;28;20043;-78
2024/02/20 10:33:58;;;;;;;14.77;1.10;;;;;;;;;;5063157;28;20021;-78
2024/02/20 10:36:25;;;;;;;17.77;1.92;;;9.70;99.90;;;;;;5065461;28;20040;-79
2024/02/20 10:39:12;;;;;;;14.68;2.28;;;9.60;99.90;;;;;;5065905;28;20021;-79
2024/02/20 10:41:39;;;;;;;15.23;1.30;;;9.60;99.90;;;;;;5064099;28;20380;-78
2024/02/20 10:44:05;;;;;;;23.40;2.22;;;9.70;99.90;;;;;;5066741;28;20056;-78
2024/02/20 10:46:40;;;;;;;16.92;2.03;;;9.70;99.90;;;;;;5066186;28;20028;-79
2024/02/20 10:49:23;;;;;;;14.65;1.40;;;9.70;99.90;;;;;;5066321;28;20028;-79
2024/02/20 10:51:50;;;;;;;18.92;2.17;;;9.70;99.90;;;;;;5069523;28;20024;-79
2024/02/20 10:54:17;;;;;;;23.90;3.40;;;9.70;99.90;;;;;;5068516;28;20079;-79
2024/02/20 10:56:44;;;;;;;17.02;1.08;;;9.90;99.90;;;;;;5067179;28;20029;-79
2024/02/20 10:59:10;;;;;;;13.45;1.92;;;9.80;99.90;;;;;;5068448;28;20053;-79
2024/02/20 11:01:38;;;;;;;17.63;1.88;;;10.00;99.90;;;;;;5067456;28;20025;-79
2024/02/20 11:04:04;;;;;;;16.42;2.83;;;10.10;99.90;;;;;;5067648;28;20017;-79
2024/02/20 11:06:33;;;;;;;16.67;1.45;;;10.20;99.90;;;;;;5067057;28;20124;-79
2024/02/20 11:09:10;;;;;;;16.02;3.42;;;10.20;99.90;;;;;;5067448;28;20031;-79
2024/02/20 11:11:36;;;;;;;24.10;1.83;;;10.20;99.90;;;;;;5067332;28;20047;-79
2024/02/20 11:14:02;;;;;;;15.98;1.05;;;10.30;99.90;;;;;;5065318;28;20033;-79
2024/02/20 11:16:35;;;;;;;9.95;1.95;;;10.40;99.90;;;;;;5066470;28;20023;-79
2024/02/20 11:19:03;;;;;;;16.88;1.25;;;10.40;99.90;;;;;;5068047;28;20087;-79
2024/02/20 11:21:30;;;;;;;21.27;1.70;;;10.50;99.90;;;;;;5066346;28;20025;-79
2024/02/20 11:23:57;;;;;;;27.67;2.97;;;10.60;99.90;;;;;;5066985;28;20052;-79
2024/02/20 11:26:32;;;;;;;20.67;2.33;;;10.50;99.90;;;;;;5067748;28;20029;-79
2024/02/20 11:28:58;;;;;;;12.75;1.65;;;10.40;99.90;;;;;;5068435;28;20017;-79
2024/02/20 11:31:28;;;;;;;14.77;1.70;;;10.60;99.90;;;;;;5068457;28;20392;-79
2024/02/20 11:33:55;;;;;;;14.88;1.48;;;10.80;99.90;;;;;;5069870;28;20029;-79
2024/02/20 11:36:20;;;;;;;15.65;2.30;;;10.80;99.90;;;;;;5055457;28;20119;-77
2024/02/20 11:39:00;;;;;;;14.20;1.98;;;10.90;99.90;;;;;;5064770;28;20031;-79
2024/02/20 11:41:26;;;;;;;15.98;2.60;;;10.90;99.90;;;;;;5065493;28;20473;-79
2024/02/20 11:44:19;;;;;;;10.40;1.58;;;11.00;99.90;;;;;;5067989;28;20052;-79
2024/02/20 11:46:53;;;;;;;17.23;2.13;;;11.00;99.90;;;;;;5068723;28;20384;-79
2024/02/20 11:49:20;;;;;;;16.63;1.85;;;10.90;99.90;;;;;;5072129;28;20045;-79
2024/02/20 11:51:46;;;;;;;13.25;1.15;;;10.90;99.90;;;;;;5071223;28;20076;-79
2024/02/20 11:54:12;;;;;;;14.98;1.95;;;;;;;;;;5070008;28;20025;-78
2024/02/20 11:56:39;;;;;;;16.95;0.88;;;11.20;99.90;;;;;;5057877;28;20029;-77
2024/02/20 11:59:06;;;;;;;7.43;1.55;;;11.20;99.90;;;;;;5055737;28;20392;-77
2024/02/20 12:01:34;;;;;;;20.80;2.97;;;11.30;99.90;;;;;;5068193;28;20473;-78
2024/02/20 12:04:06;;;;;;;20.35;1.95;;;11.50;99.90;;;;;;5055963;28;20536;-77
2024/02/20 12:06:35;;;;;;;13.15;1.23;;;11.50;99.90;;;;;;5056849;28;20075;-77
2024/02/20 12:09:01;;;;;;;13.60;1.48;;;11.60;99.90;;;;;;5063150;28;20017;-77
2024/02/20 12:11:27;;;;;;;16.50;1.52;;;11.50;99.90;;;;;;5055672;28;20025;-77
2024/02/20 12:13:53;;;;;;;21.00;2.03;;;11.60;99.90;;;;;;5056797;28;20480;-77
2024/02/20 12:16:29;;;;;;;14.32;1.38;;;11.60;99.90;;;;;;5067414;28;20028;-80
2024/02/20 12:18:57;;;;;;;13.45;2.17;;;11.50;99.90;;;;;;5075430;28;20032;-80
2024/02/20 12:21:25;;;;;;;17.27;1.90;;;11.60;99.90;;;;;;5071064;28;20171;-78
2024/02/20 12:23:55;;;;;;;13.60;1.23;;;11.70;99.90;;;;;;5055234;28;20565;-77
2024/02/20 12:26:22;;;;;;;20.25;1.83;;;11.70;99.90;;;;;;5057259;28;20084;-77
2024/02/20 12:28:48;;;;;;;14.10;1.13;;;11.80;99.90;;;;;;5058281;28;20052;-78
2024/02/20 12:31:20;;;;;;;11.40;0.80;;;11.80;99.90;;;;;;5068976;28;20029;-79
2024/02/20 12:33:46;;;;;;;14.85;0.73;;;11.80;99.90;;;;;;5069466;28;20009;-79
2024/02/20 12:36:11;;;;;;;15.55;0.98;;;11.50;99.90;;;;;;5070157;28;20025;-80
2024/02/20 12:38:37;;;;;;;19.83;1.73;;;11.50;99.90;;;;;;5067422;28;20021;-79
2024/02/20 12:41:03;;;;;;;16.50;1.23;;;11.50;99.90;;;;;;5069650;28;20039;-79
2024/02/20 12:43:28;;;;;;;7.53;1.27;;;11.50;99.90;;;;;;5069407;28;20163;-79
2024/02/20 12:45:54;;;;;;;12.30;0.80;;;11.60;99.90;;;;;;5068759;28;20018;-79
2024/02/20 12:48:20;;;;;;;16.90;1.60;;;;;;;;;;5063321;28;20088;-79
2024/02/20 12:50:46;;;;;;;10.27;0.77;;;11.60;99.90;;;;;;5072068;28;20089;-79
2024/02/20 12:53:12;;;;;;;16.30;1.90;;;11.60;99.90;;;;;;5071159;28;20064;-78